Johann Essberger — CQKG — position and weather

sailwx.info

Track history (hours):
 
Tides and Currents Weather Stations Pressure Air Temp Water Temp Dewpoint Dewpoint Depression Visibility Wind Speed Wind Dir Waves Ship Positions

Johann Essberger

Last reported at 2016-Sep-25 16:24 UTC. Time now 2016-Sep-26 01:57 UTC.
Position N 59°50' E 024°50'.

Length 98 m; draft 6.1 m.

Type: Ship (hazmat cat C). MMSI: 255804460.

Date/timePositionNaut miles runAvg speedWind from/ knotsBaromVisibWave heightAir tempDewpointWater temp
2016-Sep-25 16:24N 59°50' E 024°50'  
2016-Sep-23 09:33N 60°24' E 026°53'2 0.6
2016-Sep-23 06:32N 60°26' E 026°55'0 0.0
2016-Sep-23 04:32N 60°26' E 026°55'0 0.0
2016-Sep-23 03:32N 60°26' E 026°55'0 0.0
2016-Sep-23 02:32N 60°26' E 026°55'0 0.0
2016-Sep-23 01:32N 60°26' E 026°55'0 0.0
2016-Sep-23 00:32N 60°26' E 026°55'0 0.0
2016-Sep-22 23:32N 60°26' E 026°55'0 0.0
2016-Sep-22 20:32N 60°26' E 026°55'  
2016-Sep-20 02:32N 59°47' E 024°58'3812.6
2016-Sep-19 23:29N 59°36' E 023°46'35712.6
2016-Sep-18 19:06N 55°39' E 015°27'4412.4
2016-Sep-18 15:33N 55°13' E 014°25'1312.9
2016-Sep-18 14:33N 55°03' E 014°11'5012.6
2016-Sep-18 10:33N 54°45' E 012°49'1512.8
2016-Sep-18 09:24N 54°38' E 012°27'7611.1
2016-Sep-18 02:31N 54°29' E 010°17'8 8.7
2016-Sep-18 01:33N 54°22' E 010°08'1 1.0
2016-Sep-18 00:34N 54°22' E 010°07'33 5.9
2016-Sep-17 19:04N 54°05' E 009°19'29 5.3
2016-Sep-17 13:33N 53°58' E 008°31'1211.9
2016-Sep-17 12:33N 53°60' E 008°11'2613.2
2016-Sep-17 10:33N 54°09' E 007°29'1814.4
2016-Sep-17 09:20N 54°09' E 006°59'2814.9
2016-Sep-17 07:25N 54°08' E 006°10'2714.6
2016-Sep-17 05:33N 54°04' E 005°24'1414.1
2016-Sep-17 04:33N 54°02' E 005°00'18511.6
2016-Sep-16 12:34N 53°38' W 000°11'0 0.0
2016-Sep-16 09:04N 53°38' W 000°11'0 0.0
2016-Sep-16 07:22N 53°38' W 000°11'0 0.0
2016-Sep-16 03:25N 53°38' W 000°11'0 0.0
2016-Sep-16 02:28N 53°38' W 000°11'0 0.0
2016-Sep-16 00:25N 53°38' W 000°11'0 0.0
2016-Sep-15 22:28N 53°38' W 000°11'0 0.0
2016-Sep-15 21:28N 53°38' W 000°11'0 0.0
2016-Sep-15 20:32N 53°38' W 000°11'  
Track history (hours):
 
Tides and Currents Weather Stations Pressure Air Temp Water Temp Dewpoint Dewpoint Depression Visibility Wind Speed Wind Dir Waves Ship Positions

Johann Essberger

Last reported at 2016-Sep-25 16:24 UTC. Time now 2016-Sep-26 01:57 UTC.
Position N 59°50' E 024°50'.

Length 98 m; draft 6.1 m.

Type: Ship (hazmat cat C). MMSI: 255804460.

Date/timePositionNaut miles runAvg speedWind from/ knotsBaromVisibWave heightAir tempDewpointWater temp
2016-Sep-25 16:24N 59°50' E 024°50'  
2016-Sep-23 09:33N 60°24' E 026°53'2 0.6
2016-Sep-23 06:32N 60°26' E 026°55'0 0.0
2016-Sep-23 04:32N 60°26' E 026°55'0 0.0
2016-Sep-23 03:32N 60°26' E 026°55'0 0.0
2016-Sep-23 02:32N 60°26' E 026°55'0 0.0
2016-Sep-23 01:32N 60°26' E 026°55'0 0.0
2016-Sep-23 00:32N 60°26' E 026°55'0 0.0
2016-Sep-22 23:32N 60°26' E 026°55'0 0.0
2016-Sep-22 20:32N 60°26' E 026°55'  
2016-Sep-20 02:32N 59°47' E 024°58'3812.6
2016-Sep-19 23:29N 59°36' E 023°46'35712.6
2016-Sep-18 19:06N 55°39' E 015°27'4412.4
2016-Sep-18 15:33N 55°13' E 014°25'1312.9
2016-Sep-18 14:33N 55°03' E 014°11'5012.6
2016-Sep-18 10:33N 54°45' E 012°49'1512.8
2016-Sep-18 09:24N 54°38' E 012°27'7611.1
2016-Sep-18 02:31N 54°29' E 010°17'8 8.7
2016-Sep-18 01:33N 54°22' E 010°08'1 1.0
2016-Sep-18 00:34N 54°22' E 010°07'33 5.9
2016-Sep-17 19:04N 54°05' E 009°19'29 5.3
2016-Sep-17 13:33N 53°58' E 008°31'1211.9
2016-Sep-17 12:33N 53°60' E 008°11'2613.2
2016-Sep-17 10:33N 54°09' E 007°29'1814.4
2016-Sep-17 09:20N 54°09' E 006°59'2814.9
2016-Sep-17 07:25N 54°08' E 006°10'2714.6
2016-Sep-17 05:33N 54°04' E 005°24'1414.1
2016-Sep-17 04:33N 54°02' E 005°00'18511.6
2016-Sep-16 12:34N 53°38' W 000°11'0 0.0
2016-Sep-16 09:04N 53°38' W 000°11'0 0.0
2016-Sep-16 07:22N 53°38' W 000°11'0 0.0
2016-Sep-16 03:25N 53°38' W 000°11'0 0.0
2016-Sep-16 02:28N 53°38' W 000°11'0 0.0
2016-Sep-16 00:25N 53°38' W 000°11'0 0.0
2016-Sep-15 22:28N 53°38' W 000°11'0 0.0
2016-Sep-15 21:28N 53°38' W 000°11'0 0.0
2016-Sep-15 20:32N 53°38' W 000°11'  

Dump ship's entire track history